Time;durP1;ratioP1;P1;durP2;ratioP2;P2;SDS_P1;SDS_P2;PMS_P1;PMS_P2;Temp;Humidity;BMP_temperature;BMP_pressure;BME280_temperature;BME280_humidity;BME280_pressure;Samples;Min_cycle;Max_cycle;Signal;HPM_P1;HPM_P2
2022/07/24 00:02:51;;;;;;;8.05;3.35;;;15.50;99.90;;;;;;5773261;24;20020;-79
2022/07/24 00:09:33;;;;;;;5.15;3.08;;;15.30;99.90;;;;;;5903667;24;20026;-81
2022/07/24 00:31:15;;;;;;;4.45;3.28;;;15.50;99.90;;;;;;5874978;24;20017;-80
2022/07/24 00:38:52;;;;;;;;;;;;;;;;;;;;;
2022/07/24 01:20:57;;;;;;;4.93;4.03;;;15.60;99.90;;;;;;5824562;24;20014;-79
2022/07/24 01:51:29;;;;;;;5.00;4.50;;;15.60;99.90;;;;;;6167293;22;1379613;-92
2022/07/24 01:53:55;;;;;;;4.93;4.45;;;15.60;99.90;;;;;;6164210;23;20347;-92
2022/07/24 01:56:21;;;;;;;6.90;4.35;;;15.50;99.90;;;;;;6140879;23;20019;-91
2022/07/24 01:58:47;;;;;;;5.15;4.50;;;15.50;99.90;;;;;;6191647;23;20017;-91
2022/07/24 02:01:13;;;;;;;6.35;4.55;;;15.50;99.90;;;;;;6145267;23;20012;-91
2022/07/24 02:03:39;;;;;;;5.00;4.40;;;15.50;99.90;;;;;;6167782;23;20017;-90
2022/07/24 02:06:05;;;;;;;5.90;4.65;;;15.50;99.90;;;;;;6143156;23;20031;-90
2022/07/24 02:08:33;;;;;;;6.15;4.90;;;15.60;99.90;;;;;;6165576;23;20048;-91
2022/07/24 02:10:59;;;;;;;6.38;5.07;;;15.50;99.90;;;;;;6143752;23;20016;-91
2022/07/24 02:13:25;;;;;;;5.50;4.88;;;15.50;99.90;;;;;;6152180;23;20015;-90
2022/07/24 02:15:52;;;;;;;5.40;4.78;;;15.60;99.90;;;;;;6153910;23;20020;-90
2022/07/24 02:18:18;;;;;;;7.85;4.70;;;15.50;99.90;;;;;;6157736;23;20103;-91
2022/07/24 02:20:44;;;;;;;5.18;4.30;;;15.50;99.90;;;;;;6154078;23;20447;-92
2022/07/24 02:23:17;;;;;;;6.90;4.47;;;15.50;99.90;;;;;;6196023;23;20022;-91
2022/07/24 02:25:47;;;;;;;5.40;4.75;;;15.50;99.90;;;;;;6170934;23;20343;-90
2022/07/24 02:28:17;;;;;;;6.70;4.78;;;15.50;99.90;;;;;;6197072;23;20123;-92
2022/07/24 02:30:43;;;;;;;6.22;5.13;;;15.50;99.90;;;;;;6197278;23;20020;-91
2022/07/24 02:33:11;;;;;;;6.28;4.40;;;15.60;99.90;;;;;;6199409;23;20016;-91
2022/07/24 02:35:38;;;;;;;5.20;4.70;;;15.50;99.90;;;;;;6198685;23;20027;-90
2022/07/24 02:38:05;;;;;;;5.40;4.90;;;15.50;99.90;;;;;;6204527;23;20013;-91
2022/07/24 02:40:31;;;;;;;5.60;5.10;;;15.50;99.90;;;;;;6170183;23;20047;-91
2022/07/24 02:42:57;;;;;;;5.93;5.18;;;15.50;99.90;;;;;;6169531;23;20012;-91
2022/07/24 02:45:23;;;;;;;6.03;4.93;;;15.50;99.90;;;;;;6160727;23;20012;-91
2022/07/24 02:47:55;;;;;;;5.63;5.07;;;15.60;99.90;;;;;;6147998;23;20504;-92
2022/07/24 02:50:23;;;;;;;5.28;4.72;;;15.50;99.90;;;;;;6190494;23;20422;-92
2022/07/24 02:52:50;;;;;;;5.97;5.38;;;15.50;99.90;;;;;;6188362;23;20078;-90
2022/07/24 02:55:18;;;;;;;5.20;4.70;;;15.50;99.90;;;;;;6189453;23;20012;-91
2022/07/24 02:57:44;;;;;;;7.55;5.88;;;15.50;99.90;;;;;;6198648;23;20331;-91
2022/07/24 03:00:14;;;;;;;7.18;5.05;;;15.50;99.90;;;;;;6195332;23;20072;-91
2022/07/24 03:02:40;;;;;;;7.53;5.47;;;15.50;99.90;;;;;;6187997;23;20012;-92
2022/07/24 03:05:07;;;;;;;5.88;5.28;;;15.50;99.90;;;;;;6163521;23;20024;-91
2022/07/24 03:07:36;;;;;;;5.38;4.88;;;15.50;99.90;;;;;;6190458;23;20019;-92
2022/07/24 03:10:04;;;;;;;5.63;4.85;;;15.50;99.90;;;;;;6185213;23;20074;-91
2022/07/24 03:12:29;;;;;;;5.43;4.93;;;15.40;99.90;;;;;;6160837;23;20016;-92
2022/07/24 03:14:55;;;;;;;6.03;5.03;;;15.50;99.90;;;;;;6137074;23;20020;-91
2022/07/24 03:17:21;;;;;;;6.13;5.10;;;15.50;99.90;;;;;;6140247;23;20021;-91
2022/07/24 03:19:47;;;;;;;6.80;5.47;;;15.70;99.90;;;;;;6136308;23;20020;-91
2022/07/24 03:22:13;;;;;;;5.65;4.82;;;15.40;99.90;;;;;;6136531;23;20016;-91
2022/07/24 03:24:39;;;;;;;5.88;5.28;;;15.50;99.90;;;;;;6140233;23;20067;-91
2022/07/24 03:27:05;;;;;;;6.63;5.38;;;15.50;99.90;;;;;;6184187;23;20409;-92
2022/07/24 03:29:30;;;;;;;6.53;5.82;;;15.50;99.90;;;;;;6158451;23;20024;-92
2022/07/24 03:31:56;;;;;;;7.20;4.82;;;15.40;99.90;;;;;;6135618;23;20549;-90
2022/07/24 03:34:22;;;;;;;6.65;5.47;;;15.40;99.90;;;;;;6190586;23;20020;-92
2022/07/24 03:36:48;;;;;;;7.35;5.28;;;15.50;99.90;;;;;;6163179;23;20047;-91
2022/07/24 03:39:14;;;;;;;5.93;5.32;;;15.50;99.90;;;;;;6165458;23;20012;-90
2022/07/24 03:41:40;;;;;;;7.13;5.90;;;15.40;99.90;;;;;;6144203;23;20016;-90
2022/07/24 03:44:07;;;;;;;9.18;5.85;;;15.40;99.90;;;;;;6144415;23;20009;-90
2022/07/24 03:46:34;;;;;;;7.22;5.10;;;15.40;99.90;;;;;;6141474;23;20023;-92
2022/07/24 03:49:00;;;;;;;6.50;5.20;;;15.40;99.90;;;;;;6175583;23;20020;-91
2022/07/24 03:51:27;;;;;;;6.05;5.45;;;15.40;99.90;;;;;;6204354;23;20033;-91
2022/07/24 03:53:54;;;;;;;6.63;4.78;;;15.30;99.90;;;;;;6196572;23;20023;-92
2022/07/24 03:56:20;;;;;;;7.75;5.10;;;15.50;99.90;;;;;;6192101;23;20020;-90
2022/07/24 03:58:46;;;;;;;6.53;5.25;;;15.60;99.90;;;;;;6164507;23;20494;-91
2022/07/24 04:01:12;;;;;;;6.93;5.10;;;15.60;99.90;;;;;;6198980;23;20012;-91
2022/07/24 04:03:38;;;;;;;5.90;5.25;;;15.60;99.90;;;;;;6187192;23;20067;-91
2022/07/24 04:06:06;;;;;;;7.40;5.18;;;15.70;99.90;;;;;;6164706;23;20070;-91
2022/07/24 04:08:33;;;;;;;5.97;5.10;;;15.60;99.90;;;;;;6161818;23;20020;-92
2022/07/24 04:10:59;;;;;;;6.25;5.07;;;15.60;99.90;;;;;;6186217;23;20023;-92
2022/07/24 04:13:28;;;;;;;6.07;5.47;;;15.60;99.90;;;;;;6160166;23;20023;-91
2022/07/24 04:15:54;;;;;;;5.50;4.90;;;15.60;99.90;;;;;;6187739;23;20450;-91
2022/07/24 04:18:20;;;;;;;5.63;5.07;;;15.60;99.90;;;;;;6161585;23;20096;-92
2022/07/24 04:20:58;;;;;;;5.50;4.78;;;15.60;99.90;;;;;;6160821;23;20020;-91
2022/07/24 04:23:24;;;;;;;5.63;4.93;;;15.60;99.90;;;;;;6184244;23;20013;-91
2022/07/24 04:25:54;;;;;;;6.63;5.00;;;15.60;99.90;;;;;;6169152;23;20115;-92
2022/07/24 04:28:20;;;;;;;7.55;5.13;;;15.60;99.90;;;;;;6170522;23;20021;-91
2022/07/24 04:30:46;;;;;;;6.78;6.07;;;15.60;99.90;;;;;;6139888;23;20019;-91
2022/07/24 04:33:12;;;;;;;7.88;5.50;;;16.10;99.90;;;;;;6187281;23;20470;-91
2022/07/24 04:35:38;;;;;;;8.10;5.55;;;15.50;99.90;;;;;;6185417;23;20012;-92
2022/07/24 04:38:04;;;;;;;5.88;5.10;;;15.60;99.90;;;;;;6158450;23;20409;-91
2022/07/24 04:40:30;;;;;;;7.30;5.22;;;15.50;99.90;;;;;;6184420;23;20047;-91
2022/07/24 04:42:56;;;;;;;6.45;5.45;;;15.60;99.90;;;;;;6135052;23;20077;-90
2022/07/24 04:45:22;;;;;;;6.55;5.82;;;15.70;99.90;;;;;;6185116;23;20063;-90
2022/07/24 04:47:48;;;;;;;6.13;5.47;;;15.70;99.90;;;;;;6136051;23;20024;-91
2022/07/24 04:50:14;;;;;;;7.78;5.78;;;15.70;99.90;;;;;;6161993;23;20056;-91
2022/07/24 04:52:41;;;;;;;6.03;5.00;;;15.70;99.90;;;;;;6136961;23;20020;-90
2022/07/24 04:55:07;;;;;;;6.55;5.90;;;15.70;99.90;;;;;;6166052;23;20017;-91
2022/07/24 04:57:33;;;;;;;6.70;5.53;;;15.70;99.90;;;;;;6186707;23;20017;-91
2022/07/24 04:59:59;;;;;;;8.45;5.60;;;15.80;99.90;;;;;;6163873;23;20012;-91
2022/07/24 05:02:25;;;;;;;6.85;5.40;;;15.80;99.90;;;;;;6160679;23;20466;-92
2022/07/24 05:04:52;;;;;;;5.72;5.13;;;15.90;99.90;;;;;;6163404;23;20050;-91
2022/07/24 05:07:20;;;;;;;6.38;5.78;;;15.90;99.90;;;;;;6185698;23;20016;-92
2022/07/24 05:09:46;;;;;;;7.88;5.38;;;15.90;99.90;;;;;;6163287;23;20013;-91
2022/07/24 05:12:12;;;;;;;7.70;5.47;;;15.90;99.90;;;;;;6160955;23;20026;-91
2022/07/24 05:14:41;;;;;;;7.60;5.05;;;15.90;99.90;;;;;;6139588;23;20019;-90
2022/07/24 05:17:08;;;;;;;6.50;5.90;;;15.90;99.90;;;;;;6195418;23;20073;-91
2022/07/24 05:19:34;;;;;;;6.53;5.30;;;15.90;99.90;;;;;;6140154;23;20450;-91
2022/07/24 05:22:00;;;;;;;7.13;5.35;;;16.20;99.90;;;;;;6139119;23;20044;-91
2022/07/24 05:24:26;;;;;;;6.53;5.35;;;16.10;99.90;;;;;;6136357;23;20490;-90
2022/07/24 05:26:52;;;;;;;8.07;5.10;;;16.30;99.90;;;;;;6137426;23;20100;-90
2022/07/24 05:29:20;;;;;;;8.63;5.20;;;16.40;99.90;;;;;;6161024;23;20023;-91
2022/07/24 05:31:46;;;;;;;5.95;4.85;;;16.50;99.90;;;;;;6137175;23;20021;-91
2022/07/24 05:34:13;;;;;;;7.93;5.65;;;16.50;99.90;;;;;;6163199;23;20013;-90
2022/07/24 05:36:41;;;;;;;5.15;4.63;;;16.50;99.90;;;;;;6162424;23;20020;-90
2022/07/24 05:39:08;;;;;;;7.68;5.22;;;16.70;99.90;;;;;;6148380;23;20060;-90
2022/07/24 05:41:40;;;;;;;5.72;4.85;;;16.80;99.90;;;;;;6164866;23;20017;-91
2022/07/24 05:44:08;;;;;;;5.97;5.35;;;17.00;99.90;;;;;;6161736;23;20111;-91
2022/07/24 05:46:35;;;;;;;6.20;5.60;;;17.00;99.90;;;;;;6185476;23;20071;-91
2022/07/24 05:49:01;;;;;;;7.70;5.25;;;17.00;99.90;;;;;;6165043;23;20486;-91
2022/07/24 05:51:27;;;;;;;6.07;5.47;;;17.60;99.90;;;;;;6169218;23;20052;-92
2022/07/24 05:53:56;;;;;;;5.32;4.82;;;17.10;99.90;;;;;;6165323;23;20127;-91
2022/07/24 05:56:22;;;;;;;7.43;6.00;;;17.20;99.90;;;;;;6130485;23;20355;-91
2022/07/24 05:58:48;;;;;;;6.50;5.60;;;17.20;99.90;;;;;;6159546;23;20092;-92
2022/07/24 06:01:13;;;;;;;6.90;5.60;;;17.30;99.90;;;;;;6161914;23;20370;-93
2022/07/24 06:03:39;;;;;;;6.45;5.78;;;17.30;99.90;;;;;;6135661;23;20013;-91
2022/07/24 06:06:05;;;;;;;6.72;5.10;;;17.30;99.90;;;;;;6134350;23;20452;-90
2022/07/24 06:08:31;;;;;;;6.00;5.30;;;17.40;99.90;;;;;;6135145;23;20013;-92
2022/07/24 06:10:57;;;;;;;6.78;5.07;;;17.40;99.90;;;;;;6185448;23;20017;-90
2022/07/24 06:13:23;;;;;;;5.82;5.22;;;17.60;99.90;;;;;;6138213;23;20099;-90
2022/07/24 06:15:52;;;;;;;6.05;5.32;;;17.70;99.90;;;;;;6196519;23;20064;-90
2022/07/24 06:18:18;;;;;;;6.75;6.15;;;17.70;99.90;;;;;;6199788;23;20016;-91
2022/07/24 06:20:45;;;;;;;6.47;5.47;;;17.80;99.90;;;;;;6167797;23;20047;-90
2022/07/24 06:23:11;;;;;;;8.10;6.28;;;18.00;99.90;;;;;;6192087;23;20017;-90
2022/07/24 06:25:43;;;;;;;6.95;6.25;;;18.10;99.90;;;;;;6163884;23;20013;-91
2022/07/24 06:28:09;;;;;;;6.30;5.63;;;18.20;99.90;;;;;;6141221;23;20066;-89
2022/07/24 06:30:36;;;;;;;8.15;6.50;;;18.30;99.90;;;;;;6171586;23;20023;-90
2022/07/24 06:33:02;;;;;;;7.63;5.78;;;18.30;99.90;;;;;;6169013;23;20055;-89
2022/07/24 06:35:32;;;;;;;6.47;5.88;;;18.40;99.90;;;;;;6163680;23;20017;-91
2022/07/24 06:38:00;;;;;;;6.53;5.93;;;18.40;99.90;;;;;;6164434;23;20311;-90
2022/07/24 06:40:27;;;;;;;7.57;6.88;;;18.60;99.90;;;;;;6165944;23;20023;-89
2022/07/24 06:42:53;;;;;;;9.18;6.95;;;18.60;99.90;;;;;;6196786;23;20037;-90
2022/07/24 06:45:25;;;;;;;11.23;7.43;;;18.60;99.90;;;;;;6193152;23;20020;-90
2022/07/24 06:47:52;;;;;;;9.48;7.63;;;18.80;99.90;;;;;;6172676;23;20017;-89
2022/07/24 06:50:17;;;;;;;8.75;6.53;;;18.90;99.90;;;;;;6166505;23;20028;-90
2022/07/24 06:52:45;;;;;;;8.27;7.28;;;19.00;99.90;;;;;;6140416;23;20518;-90
2022/07/24 06:55:11;;;;;;;8.57;7.55;;;19.10;99.90;;;;;;6197176;23;20059;-89
2022/07/24 06:57:39;;;;;;;8.63;7.40;;;19.30;99.90;;;;;;6142669;23;20458;-89
2022/07/24 07:00:09;;;;;;;8.55;7.25;;;19.50;99.90;;;;;;6185512;23;20013;-89
2022/07/24 07:02:36;;;;;;;11.65;8.52;;;19.60;99.90;;;;;;6160780;23;20017;-91
2022/07/24 07:05:03;;;;;;;10.10;8.80;;;19.60;99.90;;;;;;6200385;23;20021;-89
2022/07/24 07:07:29;;;;;;;11.52;9.43;;;19.80;99.90;;;;;;6162347;23;20027;-90
2022/07/24 07:09:55;;;;;;;10.35;7.80;;;19.80;99.90;;;;;;6138616;23;20384;-89
2022/07/24 07:12:21;;;;;;;12.88;8.95;;;19.90;99.90;;;;;;6137370;23;20017;-91
2022/07/24 07:14:47;;;;;;;10.52;9.43;;;20.00;99.90;;;;;;6145381;23;20020;-90
2022/07/24 07:17:15;;;;;;;10.60;8.70;;;20.20;99.90;;;;;;6182395;23;20063;-90
2022/07/24 07:19:42;;;;;;;9.55;8.15;;;20.20;99.90;;;;;;6136784;23;20044;-90
2022/07/24 07:22:09;;;;;;;12.63;9.43;;;20.30;99.90;;;;;;6162037;23;20009;-92
2022/07/24 07:24:35;;;;;;;10.95;9.45;;;20.40;99.90;;;;;;6192260;23;20012;-90
2022/07/24 07:27:01;;;;;;;10.40;9.40;;;20.50;99.90;;;;;;6172579;23;20023;-91
2022/07/24 07:29:27;;;;;;;11.82;10.43;;;20.50;99.90;;;;;;6161844;23;20017;-89
2022/07/24 07:31:53;;;;;;;10.32;8.90;;;20.50;99.90;;;;;;6134277;23;20027;-90
2022/07/24 07:34:19;;;;;;;10.63;9.23;;;20.60;99.90;;;;;;6139207;23;20319;-91
2022/07/24 07:36:44;;;;;;;10.90;9.75;;;20.60;99.90;;;;;;6154901;23;20071;-90
2022/07/24 07:39:10;;;;;;;10.50;9.40;;;20.80;99.90;;;;;;6138306;23;20009;-89
2022/07/24 07:41:36;;;;;;;11.77;9.52;;;20.90;99.90;;;;;;6139285;23;20443;-90
2022/07/24 07:44:02;;;;;;;12.52;10.45;;;21.10;99.90;;;;;;6138698;23;20151;-90
2022/07/24 07:46:29;;;;;;;10.73;9.38;;;21.00;99.90;;;;;;6135869;23;20024;-90
2022/07/24 07:48:55;;;;;;;11.15;9.82;;;21.20;99.90;;;;;;6162016;23;20110;-90
2022/07/24 07:51:21;;;;;;;10.25;9.25;;;21.40;99.90;;;;;;6162774;23;20025;-91
2022/07/24 07:53:48;;;;;;;10.38;9.10;;;21.60;99.90;;;;;;6138962;23;20413;-91
2022/07/24 07:56:14;;;;;;;9.43;8.45;;;21.90;99.90;;;;;;6188904;23;20017;-91
2022/07/24 07:58:40;;;;;;;10.77;7.40;;;22.00;99.90;;;;;;6160788;23;20015;-91
2022/07/24 08:01:13;;;;;;;8.57;7.40;;;22.10;99.90;;;;;;6164820;23;20447;-90
2022/07/24 08:03:39;;;;;;;7.68;6.25;;;22.10;99.90;;;;;;6164884;23;20013;-90
2022/07/24 08:06:05;;;;;;;7.70;5.63;;;22.00;99.90;;;;;;6140437;23;20068;-89
2022/07/24 08:08:31;;;;;;;8.27;5.53;;;22.00;99.90;;;;;;6156775;23;20012;-93
2022/07/24 08:10:57;;;;;;;6.03;5.35;;;22.00;99.90;;;;;;6149896;23;20019;-92
2022/07/24 08:13:23;;;;;;;6.95;5.07;;;22.00;99.90;;;;;;6141544;23;20020;-93
2022/07/24 08:15:49;;;;;;;5.93;5.20;;;22.10;99.90;;;;;;6142446;23;20024;-94
2022/07/24 08:18:18;;;;;;;7.47;5.25;;;22.30;99.90;;;;;;6148477;23;20016;-93
2022/07/24 08:20:59;;;;;;;4.93;4.43;;;22.40;99.90;;;;;;6172777;23;20422;-93
2022/07/24 08:23:25;;;;;;;6.15;4.95;;;22.40;99.90;;;;;;6153772;23;20016;-95
2022/07/24 08:25:51;;;;;;;6.75;4.63;;;22.30;99.90;;;;;;6167998;23;20054;-94
2022/07/24 08:28:17;;;;;;;5.53;4.43;;;22.40;99.90;;;;;;6146617;23;20072;-93
2022/07/24 08:30:44;;;;;;;4.65;4.10;;;22.50;99.90;;;;;;6152309;23;20378;-94
2022/07/24 08:33:13;;;;;;;4.80;3.63;;;22.60;99.90;;;;;;6179169;23;20095;-94
2022/07/24 08:35:39;;;;;;;4.32;3.50;;;22.80;99.90;;;;;;6185426;23;20047;-93
2022/07/24 08:38:05;;;;;;;4.13;3.75;;;23.00;99.90;;;;;;6165774;23;20013;-93
2022/07/24 08:40:37;;;;;;;3.42;3.13;;;22.90;99.90;;;;;;6141850;23;20016;-93
2022/07/24 08:43:04;;;;;;;3.88;3.42;;;23.10;99.90;;;;;;6190928;23;20009;-90
2022/07/24 08:45:39;;;;;;;3.50;3.20;;;23.30;99.90;;;;;;6141081;23;20012;-92
2022/07/24 08:48:08;;;;;;;3.42;3.13;;;23.50;99.90;;;;;;6190830;23;20016;-93
2022/07/24 08:50:36;;;;;;;4.57;3.33;;;23.60;99.90;;;;;;6171551;23;20024;-95
2022/07/24 08:53:03;;;;;;;4.20;3.13;;;23.50;99.90;;;;;;6196586;23;20052;-94
2022/07/24 08:55:30;;;;;;;5.53;3.20;;;23.50;99.90;;;;;;6143606;23;20017;-93
2022/07/24 08:57:58;;;;;;;3.75;3.45;;;23.70;99.90;;;;;;6207975;23;20024;-92
2022/07/24 09:00:26;;;;;;;7.13;3.60;;;23.60;99.90;;;;;;6186890;23;20013;-91
2022/07/24 09:02:53;;;;;;;3.30;3.00;;;23.60;99.90;;;;;;6214119;23;20024;-95
2022/07/24 09:05:20;;;;;;;3.63;3.20;;;23.70;99.90;;;;;;6157028;23;20020;-91
2022/07/24 09:07:46;;;;;;;4.05;3.33;;;23.90;99.90;;;;;;6171320;23;20013;-93
2022/07/24 09:10:39;;;;;;;3.67;3.33;;;23.90;99.90;;;;;;6196280;23;20062;-91
2022/07/24 09:13:16;;;;;;;3.40;2.88;;;23.80;99.90;;;;;;6202392;23;20013;-93
2022/07/24 09:15:56;;;;;;;3.67;3.17;;;23.70;99.90;;;;;;6180940;23;20004;-94
2022/07/24 09:18:39;;;;;;;4.43;3.05;;;23.90;99.90;;;;;;6176772;23;20013;-94
2022/07/24 09:21:14;;;;;;;5.53;3.10;;;23.90;99.90;;;;;;6201492;23;20008;-94
2022/07/24 09:23:44;;;;;;;4.90;3.47;;;23.80;99.90;;;;;;6198297;23;20019;-93
2022/07/24 09:26:11;;;;;;;3.30;3.00;;;24.10;99.90;;;;;;6197475;23;20033;-92
2022/07/24 09:28:51;;;;;;;3.25;2.83;;;24.00;99.90;;;;;;6209773;23;20066;-94
2022/07/24 09:31:18;;;;;;;4.90;3.30;;;24.10;99.90;;;;;;6211487;23;20019;-95
2022/07/24 09:33:45;;;;;;;3.42;3.13;;;24.10;99.90;;;;;;6212555;23;20017;-93
2022/07/24 09:36:18;;;;;;;4.22;2.83;;;24.20;99.90;;;;;;6190067;23;20019;-94
2022/07/24 09:38:49;;;;;;;4.35;3.47;;;24.50;99.90;;;;;;6182266;23;20013;-95
2022/07/24 09:41:26;;;;;;;3.72;3.20;;;24.90;99.90;;;;;;6203761;23;19996;-94
2022/07/24 09:44:02;;;;;;;5.07;3.33;;;24.80;99.90;;;;;;6188262;23;20069;-92
2022/07/24 09:46:29;;;;;;;4.32;3.38;;;24.80;99.90;;;;;;6212477;23;20013;-92
2022/07/24 09:49:19;;;;;;;3.97;3.30;;;25.50;99.90;;;;;;6190420;23;20069;-96
2022/07/24 09:51:49;;;;;;;5.85;3.60;;;25.50;99.90;;;;;;6210132;23;20028;-94
2022/07/24 09:54:38;;;;;;;3.63;3.05;;;26.10;99.90;;;;;;6206215;23;20016;-93
2022/07/24 09:57:23;;;;;;;3.45;3.15;;;26.10;99.90;;;;;;6205688;23;20031;-91
2022/07/24 09:59:51;;;;;;;3.30;3.00;;;26.30;99.90;;;;;;6205556;23;20012;-91
2022/07/24 10:02:20;;;;;;;2.97;2.63;;;26.50;99.90;;;;;;6202857;23;20020;-92
2022/07/24 10:04:50;;;;;;;4.95;3.42;;;26.50;99.90;;;;;;6195058;23;20059;-96
2022/07/24 10:07:21;;;;;;;5.78;3.08;;;26.40;99.90;;;;;;6175466;23;20020;-92
2022/07/24 10:09:50;;;;;;;5.65;3.60;;;26.90;99.90;;;;;;6176239;23;20008;-95
2022/07/24 10:12:19;;;;;;;3.58;3.10;;;27.10;99.90;;;;;;6197252;23;20065;-94
2022/07/24 10:14:46;;;;;;;4.00;2.80;;;27.30;99.90;;;;;;6195675;23;20071;-92
2022/07/24 10:17:16;;;;;;;10.50;3.85;;;27.30;99.90;;;;;;6176623;23;20025;-93
2022/07/24 10:19:46;;;;;;;3.78;2.92;;;27.60;99.90;;;;;;6170201;23;20020;-94
2022/07/24 10:22:20;;;;;;;5.57;3.22;;;27.20;99.90;;;;;;6193891;23;20013;-94
2022/07/24 10:24:54;;;;;;;4.38;2.80;;;27.30;99.90;;;;;;6193861;23;20016;-91
2022/07/24 10:27:39;;;;;;;4.07;2.83;;;27.00;99.90;;;;;;6195764;23;20017;-93
2022/07/24 10:30:10;;;;;;;3.88;2.75;;;26.90;99.90;;;;;;6180973;23;20023;-92
2022/07/24 10:32:39;;;;;;;3.17;2.67;;;26.80;99.90;;;;;;6181077;23;20020;-92
2022/07/24 10:35:09;;;;;;;6.50;3.08;;;27.10;99.90;;;;;;6185098;23;20119;-91
2022/07/24 10:37:41;;;;;;;3.25;2.78;;;27.00;99.90;;;;;;6205030;23;20446;-90
2022/07/24 10:40:36;;;;;;;3.03;2.70;;;26.70;99.90;;;;;;6192653;23;20031;-92
2022/07/24 10:43:23;;;;;;;4.85;2.80;;;26.50;99.90;;;;;;6195967;23;20019;-93
2022/07/24 10:45:50;;;;;;;3.25;2.70;;;26.60;99.90;;;;;;6203315;23;20013;-94
2022/07/24 10:48:23;;;;;;;3.22;2.50;;;26.50;99.90;;;;;;6214302;23;20021;-93
2022/07/24 10:50:59;;;;;;;3.83;2.55;;;26.40;99.90;;;;;;6206425;23;20031;-93
2022/07/24 10:53:56;;;;;;;2.83;2.60;;;26.50;99.90;;;;;;6211386;23;20092;-92
2022/07/24 10:56:54;;;;;;;2.80;2.50;;;26.30;99.90;;;;;;6186358;23;20064;-92
2022/07/24 10:59:42;;;;;;;2.90;2.60;;;26.20;99.90;;;;;;6240229;23;20059;-93
2022/07/24 11:02:32;;;;;;;3.00;2.70;;;26.20;99.90;;;;;;6164244;23;20047;-95
2022/07/24 11:05:27;;;;;;;3.78;2.78;;;26.50;99.90;;;;;;6211740;23;20021;-91
2022/07/24 11:08:14;;;;;;;5.55;3.00;;;26.90;99.90;;;;;;6215186;23;20024;-92
2022/07/24 11:10:49;;;;;;;5.28;2.95;;;27.00;99.90;;;;;;6187516;23;20017;-92
2022/07/24 11:13:34;;;;;;;4.30;2.50;;;27.20;99.90;;;;;;6204828;23;20036;-91
2022/07/24 11:16:32;;;;;;;;;;;27.00;99.90;;;;;;6191475;23;20020;-93
2022/07/24 11:19:01;;;;;;;2.97;2.53;;;26.90;99.90;;;;;;6121482;23;19916;-92
2022/07/24 11:21:29;;;;;;;3.58;2.70;;;26.70;99.90;;;;;;6192114;23;20012;-92
2022/07/24 11:24:17;;;;;;;3.03;2.47;;;27.50;99.90;;;;;;6175755;23;20533;-93
2022/07/24 11:26:59;;;;;;;3.85;2.85;;;27.00;99.90;;;;;;6199469;23;20056;-92
2022/07/24 11:29:35;;;;;;;3.20;2.90;;;27.30;99.90;;;;;;6193043;23;20027;-92
2022/07/24 11:32:08;;;;;;;3.63;2.60;;;27.40;99.90;;;;;;6193621;23;20012;-92
2022/07/24 11:34:39;;;;;;;3.53;2.72;;;27.30;99.90;;;;;;6192374;23;20092;-92
2022/07/24 11:37:06;;;;;;;3.53;2.60;;;27.60;99.90;;;;;;6169026;23;20013;-92
2022/07/24 11:39:37;;;;;;;3.25;2.60;;;27.90;99.90;;;;;;6167661;23;20024;-93
2022/07/24 11:42:07;;;;;;;5.05;2.90;;;27.80;99.90;;;;;;6165797;23;20087;-93
2022/07/24 11:44:35;;;;;;;3.03;2.38;;;28.10;99.90;;;;;;6183967;23;20055;-87
2022/07/24 11:47:11;;;;;;;3.78;2.40;;;28.60;99.90;;;;;;6188842;23;20059;-91
2022/07/24 11:50:00;;;;;;;3.38;2.28;;;28.30;99.90;;;;;;6192195;23;20032;-91
2022/07/24 11:52:35;;;;;;;4.00;2.50;;;28.50;99.90;;;;;;6195334;23;20024;-92
2022/07/24 11:55:08;;;;;;;4.50;2.45;;;28.20;99.90;;;;;;6203342;23;20044;-94
2022/07/24 11:57:41;;;;;;;5.13;2.33;;;28.30;99.90;;;;;;6196667;23;20020;-94
2022/07/24 12:00:11;;;;;;;3.73;2.33;;;28.40;99.90;;;;;;6191152;23;20016;-91
2022/07/24 12:02:46;;;;;;;4.28;2.50;;;28.40;99.90;;;;;;6193203;23;20017;-90
2022/07/24 12:05:23;;;;;;;4.10;2.33;;;28.60;99.90;;;;;;6192490;23;20017;-92
2022/07/24 12:07:49;;;;;;;3.88;2.47;;;28.90;99.90;;;;;;6167477;23;20013;-93
2022/07/24 12:10:22;;;;;;;2.88;2.45;;;29.00;99.90;;;;;;6140757;23;20017;-90
2022/07/24 12:12:53;;;;;;;2.75;2.55;;;28.60;99.50;;;;;;6192241;23;20024;-92
2022/07/24 12:15:20;;;;;;;3.30;2.53;;;28.50;99.90;;;;;;6188965;23;20013;-93
2022/07/24 12:18:07;;;;;;;3.67;2.85;;;28.70;99.90;;;;;;6165852;23;20398;-92
2022/07/24 12:20:38;;;;;;;2.53;2.33;;;28.80;99.90;;;;;;6202243;23;20087;-92
2022/07/24 12:23:13;;;;;;;5.03;2.95;;;28.60;96.00;;;;;;6202045;23;20020;-89
2022/07/24 12:25:40;;;;;;;2.58;2.38;;;28.90;93.80;;;;;;6212245;23;20027;-89
2022/07/24 12:28:12;;;;;;;3.55;2.30;;;29.10;97.10;;;;;;6196921;23;20025;-90
2022/07/24 12:30:45;;;;;;;3.33;2.40;;;29.10;90.60;;;;;;6199087;23;20016;-93
2022/07/24 12:33:14;;;;;;;;;;;28.90;90.10;;;;;;6206852;23;20028;-90
2022/07/24 12:35:54;;;;;;;2.55;2.35;;;29.00;71.30;;;;;;6200427;23;19912;-93
2022/07/24 12:38:31;;;;;;;4.78;2.80;;;29.00;93.30;;;;;;6193516;23;20019;-92
2022/07/24 12:41:07;;;;;;;3.38;2.70;;;29.20;89.10;;;;;;6196612;23;20016;-92
2022/07/24 12:43:53;;;;;;;2.85;2.53;;;29.30;76.90;;;;;;6200190;23;20012;-91
2022/07/24 12:46:28;;;;;;;3.25;2.65;;;29.30;83.70;;;;;;6200367;23;20012;-92
2022/07/24 12:49:02;;;;;;;4.40;2.50;;;29.50;69.60;;;;;;6189252;23;20012;-92
2022/07/24 12:51:47;;;;;;;2.63;2.40;;;29.60;70.10;;;;;;6165126;23;20016;-91
2022/07/24 12:54:25;;;;;;;3.42;2.58;;;29.40;56.80;;;;;;6188066;23;20015;-87
2022/07/24 12:56:54;;;;;;;3.53;2.63;;;29.10;59.10;;;;;;6191441;23;20073;-92
2022/07/24 12:59:40;;;;;;;3.83;2.30;;;28.80;86.00;;;;;;6166181;23;20016;-91
2022/07/24 13:02:09;;;;;;;3.03;2.55;;;28.50;70.90;;;;;;6200767;23;20016;-90
2022/07/24 13:04:48;;;;;;;3.50;2.58;;;28.40;87.60;;;;;;6209474;23;20013;-91
2022/07/24 13:07:16;;;;;;;3.60;2.58;;;28.40;86.90;;;;;;6200253;23;20019;-90
2022/07/24 13:09:42;;;;;;;3.55;2.50;;;28.70;93.50;;;;;;6189826;23;20012;-89
2022/07/24 13:12:10;;;;;;;3.63;2.60;;;28.90;91.40;;;;;;6165239;23;20016;-90
2022/07/24 13:14:37;;;;;;;2.92;2.63;;;28.80;90.10;;;;;;6184187;23;20017;-90
2022/07/24 13:17:09;;;;;;;2.80;2.50;;;28.90;88.80;;;;;;6186298;23;20017;-92
2022/07/24 13:19:41;;;;;;;3.28;2.40;;;29.10;66.90;;;;;;6209440;23;20064;-90
2022/07/24 13:22:08;;;;;;;5.57;2.53;;;29.20;61.50;;;;;;6181130;23;20020;-91
2022/07/24 13:24:37;;;;;;;2.72;2.40;;;29.30;60.90;;;;;;6170251;23;20470;-91
2022/07/24 13:27:05;;;;;;;2.97;2.30;;;29.40;19.40;;;;;;6189271;23;20012;-92
2022/07/24 13:29:31;;;;;;;3.10;2.50;;;29.20;22.10;;;;;;6185857;23;20017;-91
2022/07/24 13:31:57;;;;;;;2.97;2.22;;;29.60;36.70;;;;;;6138075;23;20322;-92
2022/07/24 13:34:23;;;;;;;3.55;2.75;;;29.80;47.00;;;;;;6153286;23;20017;-92
2022/07/24 13:36:50;;;;;;;3.15;2.58;;;29.70;3.60;;;;;;6174199;23;20069;-87
2022/07/24 13:39:16;;;;;;;2.90;2.60;;;30.20;43.40;;;;;;6187115;23;20013;-89
2022/07/24 13:41:44;;;;;;;2.95;2.58;;;30.40;20.80;;;;;;6214097;23;20048;-92
2022/07/24 13:44:10;;;;;;;2.55;2.35;;;30.10;31.80;;;;;;6159850;23;20013;-94
2022/07/24 13:46:39;;;;;;;2.95;2.47;;;30.30;11.30;;;;;;6176079;23;20395;-93
2022/07/24 13:49:07;;;;;;;4.55;2.72;;;30.70;1.00;;;;;;6208061;23;20013;-94
2022/07/24 13:51:34;;;;;;;3.00;2.50;;;30.10;1.00;;;;;;6182918;23;20024;-90
2022/07/24 13:54:01;;;;;;;2.78;2.40;;;30.20;7.70;;;;;;6189304;23;20027;-90
2022/07/24 13:56:27;;;;;;;2.75;2.30;;;30.40;1.00;;;;;;6196115;23;20017;-93
2022/07/24 13:58:53;;;;;;;3.25;2.40;;;30.40;5.10;;;;;;6176362;23;20019;-93
2022/07/24 14:01:20;;;;;;;3.38;3.03;;;30.80;6.90;;;;;;6180595;23;20067;-92
2022/07/24 14:03:49;;;;;;;2.97;2.67;;;30.90;1.00;;;;;;6203374;23;20016;-91
2022/07/24 14:06:15;;;;;;;2.67;2.40;;;30.80;1.00;;;;;;6206051;23;20017;-89
2022/07/24 14:08:42;;;;;;;3.17;2.67;;;31.10;5.30;;;;;;6186609;23;20017;-92
2022/07/24 14:11:11;;;;;;;3.47;2.78;;;31.30;1.00;;;;;;6188744;23;20035;-90
2022/07/24 14:13:37;;;;;;;3.10;2.60;;;31.00;1.00;;;;;;6183454;23;20022;-92
2022/07/24 14:16:04;;;;;;;4.20;2.60;;;31.50;1.00;;;;;;6180841;23;20013;-91
2022/07/24 14:18:30;;;;;;;4.07;2.60;;;31.60;1.00;;;;;;6204660;23;20031;-93
2022/07/24 14:20:56;;;;;;;2.55;2.35;;;31.50;1.00;;;;;;6179212;23;20048;-91
2022/07/24 14:23:24;;;;;;;2.70;2.50;;;31.50;1.00;;;;;;6176371;23;20012;-92
2022/07/24 14:25:53;;;;;;;3.03;2.72;;;31.90;1.00;;;;;;6174834;23;20064;-92
2022/07/24 14:28:19;;;;;;;5.15;2.50;;;31.90;1.00;;;;;;6170711;23;20023;-92
2022/07/24 14:30:46;;;;;;;2.75;2.40;;;31.70;1.00;;;;;;6141962;23;20020;-91
2022/07/24 14:33:12;;;;;;;3.65;2.40;;;31.70;1.00;;;;;;6179061;23;20412;-93
2022/07/24 14:35:38;;;;;;;2.67;2.47;;;31.40;1.00;;;;;;6175927;23;20022;-93
2022/07/24 14:38:04;;;;;;;2.97;2.67;;;31.60;1.00;;;;;;6154176;23;20013;-91